Time;durP1;ratioP1;P1;durP2;ratioP2;P2;SDS_P1;SDS_P2;PMS_P1;PMS_P2;Temp;Humidity;BMP_temperature;BMP_pressure;BME280_temperature;BME280_humidity;BME280_pressure;Samples;Min_cycle;Max_cycle;Signal;HPM_P1;HPM_P2
2023/11/15 00:00:12;;;;;;;;;;;;;;;9.21;100.00;99220.91;5051890;28;19967;-56
2023/11/15 00:02:39;;;;;;;;;;;;;;;9.23;100.00;99209.34;5065484;28;19963;-52
2023/11/15 00:05:06;;;;;;;;;;;;;;;9.12;100.00;99223.25;5065689;28;20189;-58
2023/11/15 00:07:34;;;;;;;;;;;;;;;9.15;100.00;99222.22;5062511;28;20031;-55
2023/11/15 00:10:01;;;;;;;;;;;;;;;9.15;100.00;99226.63;5051124;28;20012;-56
2023/11/15 00:12:31;;;;;;;;;;;;;;;9.18;100.00;99223.75;5039403;28;20357;-57
2023/11/15 00:14:58;;;;;;;;;;;;;;;9.03;100.00;99223.13;5060261;28;19924;-56
2023/11/15 00:17:25;;;;;;;;;;;;;;;9.07;100.00;99221.94;5055308;28;20325;-51
2023/11/15 00:19:53;;;;;;;;;;;;;;;9.06;100.00;99226.34;5058091;28;19950;-59
2023/11/15 00:22:25;;;;;;;;;;;;;;;9.12;100.00;99232.94;5053615;28;20008;-59
2023/11/15 00:24:52;;;;;;;;;;;;;;;9.17;100.00;99235.22;5056777;28;19975;-52
2023/11/15 00:27:20;;;;;;;;;;;;;;;9.12;100.00;99235.56;5053053;28;19993;-56
2023/11/15 00:29:47;;;;;;;;;;;;;;;9.08;100.00;99224.44;5060625;28;20028;-58
2023/11/15 00:32:14;;;;;;;;;;;;;;;8.97;100.00;99241.97;5063118;28;19948;-51
2023/11/15 00:34:42;;;;;;;;;;;;;;;8.93;100.00;99251.84;5062411;28;19924;-56
2023/11/15 00:37:10;;;;;;;;;;;;;;;8.90;100.00;99240.72;5065322;28;19968;-57
2023/11/15 00:39:40;;;;;;;;;;;;;;;8.92;100.00;99237.06;5062183;28;19964;-58
2023/11/15 00:42:08;;;;;;;;;;;;;;;8.96;100.00;99250.75;5064904;28;20120;-54
2023/11/15 00:44:35;;;;;;;;;;;;;;;8.97;100.00;99247.22;5063749;28;20309;-57
2023/11/15 00:47:03;;;;;;;;;;;;;;;9.00;100.00;99250.41;5064506;28;19956;-53
2023/11/15 00:49:30;;;;;;;;;;;;;;;8.95;100.00;99252.56;5061675;28;20015;-56
2023/11/15 00:51:57;;;;;;;;;;;;;;;9.00;100.00;99254.84;5063663;28;19987;-55
2023/11/15 00:54:24;;;;;;;;;;;;;;;8.95;100.00;99260.44;5050659;28;19961;-57
2023/11/15 00:56:51;;;;;;;;;;;;;;;8.97;100.00;99263.78;5062419;28;19986;-57
2023/11/15 00:59:22;;;;;;;;;;;;;;;8.97;100.00;99266.41;5046749;28;19953;-57
2023/11/15 01:01:57;;;;;;;;;;;;;;;8.96;100.00;99264.75;5066702;28;19924;-57
2023/11/15 01:04:25;;;;;;;;;;;;;;;9.03;100.00;99267.75;5060162;28;19924;-54
2023/11/15 01:06:52;;;;;;;;;;;;;;;9.05;100.00;99273.69;5050197;28;20304;-54
2023/11/15 01:09:22;;;;;;;;;;;;;;;9.07;100.00;99277.91;5063748;28;20401;-57
2023/11/15 01:11:50;;;;;;;;;;;;;;;9.02;100.00;99273.94;5060461;28;19928;-53
2023/11/15 01:14:17;;;;;;;;;;;;;;;9.04;100.00;99278.13;5057986;28;20063;-51
2023/11/15 01:16:45;;;;;;;;;;;;;;;9.01;100.00;99280.16;5061361;28;19971;-57
2023/11/15 01:19:12;;;;;;;;;;;;;;;9.03;100.00;99281.69;5050810;28;19960;-55
2023/11/15 01:21:39;;;;;;;;;;;;;;;9.04;100.00;99280.75;5046459;28;19964;-54
2023/11/15 01:24:06;;;;;;;;;;;;;;;9.03;100.00;99286.94;5045343;28;20347;-57
2023/11/15 01:26:33;;;;;;;;;;;;;;;9.08;100.00;99284.81;5056423;28;20412;-51
2023/11/15 01:29:01;;;;;;;;;;;;;;;9.09;100.00;99290.91;5043854;28;20126;-55
2023/11/15 01:31:28;;;;;;;;;;;;;;;9.12;100.00;99299.41;5052036;28;19925;-56
2023/11/15 01:33:55;;;;;;;;;;;;;;;9.10;100.00;99295.22;5039075;28;20394;-58
2023/11/15 01:36:23;;;;;;;;;;;;;;;9.12;100.00;99294.16;5050445;28;19991;-52
2023/11/15 01:38:50;;;;;;;;;;;;;;;9.12;100.00;99293.31;5055863;28;19971;-52
2023/11/15 01:41:18;;;;;;;;;;;;;;;9.05;100.00;99299.94;5065556;28;19976;-52
2023/11/15 01:43:45;;;;;;;;;;;;;;;9.04;100.00;99298.28;5066376;28;19985;-54
2023/11/15 01:46:14;;;;;;;;;;;;;;;9.05;100.00;99299.94;5069141;28;19947;-54
2023/11/15 01:48:41;;;;;;;;;;;;;;;9.00;100.00;99310.78;5058010;28;20019;-55
2023/11/15 01:51:10;;;;;;;;;;;;;;;8.99;100.00;99301.25;5062304;28;19929;-51
2023/11/15 01:53:38;;;;;;;;;;;;;;;8.99;100.00;99309.13;5049160;28;20433;-55
2023/11/15 01:56:06;;;;;;;;;;;;;;;9.02;100.00;99310.69;5064704;28;19925;-53
2023/11/15 01:58:33;;;;;;;;;;;;;;;9.08;100.00;99313.69;5064454;28;20023;-55
2023/11/15 02:01:00;;;;;;;;;;;;;;;9.16;100.00;99312.31;5065549;28;19971;-51
2023/11/15 02:03:27;;;;;;;;;;;;;;;9.08;100.00;99310.25;5062698;28;20020;-54
2023/11/15 02:05:54;;;;;;;;;;;;;;;9.11;100.00;99315.28;5058869;28;20311;-53
2023/11/15 02:08:22;;;;;;;;;;;;;;;9.15;100.00;99316.72;5051706;28;19940;-55
2023/11/15 02:10:49;;;;;;;;;;;;;;;9.08;100.00;99331.25;5035514;28;20016;-56
2023/11/15 02:13:19;;;;;;;;;;;;;;;9.10;100.00;99324.94;5055465;28;22009;-52
2023/11/15 02:15:46;;;;;;;;;;;;;;;9.12;100.00;99328.28;5064121;28;20007;-53
2023/11/15 02:18:13;;;;;;;;;;;;;;;9.13;100.00;99326.50;5051722;28;20011;-56
2023/11/15 02:20:40;;;;;;;;;;;;;;;9.12;100.00;99328.28;5053240;28;20572;-53
2023/11/15 02:23:07;;;;;;;;;;;;;;;9.07;100.00;99321.69;5050483;28;20003;-59
2023/11/15 02:25:34;;;;;;;;;;;;;;;9.08;100.00;99329.44;5047277;28;19976;-50
2023/11/15 02:28:03;;;;;;;;;;;;;;;9.03;100.00;99339.44;5045464;28;20030;-54
2023/11/15 02:30:30;;;;;;;;;;;;;;;9.03;100.00;99349.13;5059591;28;19975;-57
2023/11/15 02:32:57;;;;;;;;;;;;;;;9.02;100.00;99348.28;5057737;28;19964;-58
2023/11/15 02:35:24;;;;;;;;;;;;;;;9.04;100.00;99343.75;5059942;28;20412;-59
2023/11/15 02:37:51;;;;;;;;;;;;;;;9.05;100.00;99352.44;5048679;28;19957;-55
2023/11/15 02:40:18;;;;;;;;;;;;;;;9.03;100.00;99359.63;5063321;28;20384;-55
2023/11/15 02:42:45;;;;;;;;;;;;;;;9.00;100.00;99365.09;5055671;28;19947;-56
2023/11/15 02:45:12;;;;;;;;;;;;;;;9.01;100.00;99367.63;5045276;28;20481;-54
2023/11/15 02:47:39;;;;;;;;;;;;;;;9.04;100.00;99362.13;5060820;28;19937;-54
2023/11/15 02:50:06;;;;;;;;;;;;;;;9.06;100.00;99375.16;5058797;28;20003;-55
2023/11/15 02:52:35;;;;;;;;;;;;;;;9.02;100.00;99369.28;5058386;28;19960;-53
2023/11/15 02:55:03;;;;;;;;;;;;;;;9.03;100.00;99380.63;5047592;28;20015;-54
2023/11/15 02:57:30;;;;;;;;;;;;;;;9.05;100.00;99376.94;5065871;28;19939;-51
2023/11/15 02:59:57;;;;;;;;;;;;;;;9.04;100.00;99382.28;5062658;28;19947;-51
2023/11/15 03:02:25;;;;;;;;;;;;;;;9.01;100.00;99387.78;5064351;28;19924;-50
2023/11/15 03:04:52;;;;;;;;;;;;;;;8.97;100.00;99381.06;5067267;28;19960;-53
2023/11/15 03:07:19;;;;;;;;;;;;;;;9.06;100.00;99380.41;5062567;28;19936;-56
2023/11/15 03:09:45;;;;;;;;;;;;;;;9.02;100.00;99389.44;5048729;28;20083;-52
2023/11/15 03:12:13;;;;;;;;;;;;;;;9.04;100.00;99393.63;5064821;28;19964;-55
2023/11/15 03:14:40;;;;;;;;;;;;;;;9.08;100.00;99405.59;5051472;28;20024;-51
2023/11/15 03:17:17;;;;;;;;;;;;;;;9.05;100.00;99416.31;5061327;28;19936;-53
2023/11/15 03:19:44;;;;;;;;;;;;;;;9.02;100.00;99416.53;5034435;28;19968;-57
2023/11/15 03:22:12;;;;;;;;;;;;;;;8.94;100.00;99418.88;5063876;28;19967;-55
2023/11/15 03:24:39;;;;;;;;;;;;;;;8.97;100.00;99418.66;5044673;28;19967;-55
2023/11/15 03:27:06;;;;;;;;;;;;;;;8.97;100.00;99425.69;5057178;28;19943;-54
2023/11/15 03:29:33;;;;;;;;;;;;;;;9.00;100.00;99441.19;5051053;28;19925;-53
2023/11/15 03:32:01;;;;;;;;;;;;;;;8.92;100.00;99436.53;5063828;28;19951;-52
2023/11/15 03:34:29;;;;;;;;;;;;;;;8.97;100.00;99444.91;5064656;28;20027;-53
2023/11/15 03:36:56;;;;;;;;;;;;;;;8.93;100.00;99453.94;5045850;28;20032;-55
2023/11/15 03:39:23;;;;;;;;;;;;;;;8.88;100.00;99463.94;5063317;28;20055;-54
2023/11/15 03:41:50;;;;;;;;;;;;;;;8.85;100.00;99461.50;5063333;28;19931;-53
2023/11/15 03:44:17;;;;;;;;;;;;;;;8.83;100.00;99452.91;5064106;28;19964;-56
2023/11/15 03:46:44;;;;;;;;;;;;;;;8.78;100.00;99463.75;5059071;28;19956;-58
2023/11/15 03:49:11;;;;;;;;;;;;;;;8.59;100.00;99463.31;5066628;28;19924;-56
2023/11/15 03:51:38;;;;;;;;;;;;;;;8.62;100.00;99466.56;5066660;28;19995;-53
2023/11/15 03:54:05;;;;;;;;;;;;;;;8.55;100.00;99473.19;5062036;28;19989;-51
2023/11/15 03:56:33;;;;;;;;;;;;;;;8.53;100.00;99476.88;5050908;28;20494;-54
2023/11/15 03:59:00;;;;;;;;;;;;;;;8.59;100.00;99489.56;5048149;28;19970;-56
2023/11/15 04:01:27;;;;;;;;;;;;;;;8.59;100.00;99494.81;5057877;28;19932;-56
2023/11/15 04:03:54;;;;;;;;;;;;;;;8.54;100.00;99499.53;5066498;28;20329;-55
2023/11/15 04:06:22;;;;;;;;;;;;;;;8.50;100.00;99498.88;5044517;28;20023;-52
2023/11/15 04:08:49;;;;;;;;;;;;;;;8.52;100.00;99517.16;5062482;28;19932;-51
2023/11/15 04:11:16;;;;;;;;;;;;;;;8.43;100.00;99521.25;5064267;28;20013;-55
2023/11/15 04:13:43;;;;;;;;;;;;;;;8.35;100.00;99511.25;5044292;28;19978;-53
2023/11/15 04:16:10;;;;;;;;;;;;;;;8.36;100.00;99527.81;5058907;28;20870;-56
2023/11/15 04:18:38;;;;;;;;;;;;;;;8.28;100.00;99543.22;5060526;28;20477;-57
2023/11/15 04:21:05;;;;;;;;;;;;;;;8.27;100.00;99538.91;5046924;28;19930;-58
2023/11/15 04:23:32;;;;;;;;;;;;;;;8.13;100.00;99551.16;5060094;28;20019;-56
2023/11/15 04:26:00;;;;;;;;;;;;;;;8.12;100.00;99561.75;5063655;28;20309;-54
2023/11/15 04:28:27;;;;;;;;;;;;;;;8.12;100.00;99567.00;5062319;28;19955;-56
2023/11/15 04:30:55;;;;;;;;;;;;;;;8.09;100.00;99557.53;5062967;28;19963;-50
2023/11/15 04:33:22;;;;;;;;;;;;;;;8.09;100.00;99569.81;5060188;28;19963;-52
2023/11/15 04:35:49;;;;;;;;;;;;;;;7.97;100.00;99575.84;5059777;28;19968;-55
2023/11/15 04:38:16;;;;;;;;;;;;;;;7.86;100.00;99574.75;5059211;28;20107;-53
2023/11/15 04:40:43;;;;;;;;;;;;;;;7.81;100.00;99587.31;5039920;28;20031;-58
2023/11/15 04:43:10;;;;;;;;;;;;;;;7.82;100.00;99604.72;5061532;28;20278;-56
2023/11/15 04:45:37;;;;;;;;;;;;;;;7.69;100.00;99603.81;5061714;28;20042;-56
2023/11/15 04:48:04;;;;;;;;;;;;;;;7.70;100.00;99595.03;5062686;28;20398;-53
2023/11/15 04:50:31;;;;;;;;;;;;;;;7.58;100.00;99611.53;5062419;28;20019;-53
2023/11/15 04:52:59;;;;;;;;;;;;;;;7.65;100.00;99614.56;5059433;28;19925;-56
2023/11/15 04:55:26;;;;;;;;;;;;;;;7.67;100.00;99625.81;5066245;28;20483;-54
2023/11/15 04:57:53;;;;;;;;;;;;;;;7.56;100.00;99618.63;5063215;28;20012;-55
2023/11/15 05:00:20;;;;;;;;;;;;;;;7.56;100.00;99636.94;5040686;28;19924;-54
2023/11/15 05:02:47;;;;;;;;;;;;;;;7.48;100.00;99629.59;5042545;28;19960;-55
2023/11/15 05:05:14;;;;;;;;;;;;;;;7.40;100.00;99625.75;5063215;28;20137;-53
2023/11/15 05:07:41;;;;;;;;;;;;;;;7.34;100.00;99633.06;5064486;28;20443;-56
2023/11/15 05:10:09;;;;;;;;;;;;;;;7.31;100.00;99637.63;5067736;28;20003;-57
2023/11/15 05:12:37;;;;;;;;;;;;;;;7.29;100.00;99635.09;5068896;28;20047;-56
2023/11/15 05:15:04;;;;;;;;;;;;;;;7.28;100.00;99638.66;5065470;28;19975;-55
2023/11/15 05:17:31;;;;;;;;;;;;;;;7.26;100.00;99651.00;5065858;28;19967;-53
2023/11/15 05:19:59;;;;;;;;;;;;;;;7.33;100.00;99654.06;5067284;28;19956;-55
2023/11/15 05:22:26;;;;;;;;;;;;;;;7.34;100.00;99661.84;5065639;28;19974;-56
2023/11/15 05:24:53;;;;;;;;;;;;;;;7.26;100.00;99661.47;5064460;28;20011;-51
2023/11/15 05:27:22;;;;;;;;;;;;;;;7.26;100.00;99671.94;5066939;28;20011;-56
2023/11/15 05:29:50;;;;;;;;;;;;;;;7.28;100.00;99670.06;5050316;28;20041;-56
2023/11/15 05:32:17;;;;;;;;;;;;;;;7.26;100.00;99677.19;5063757;28;20063;-58
2023/11/15 05:34:44;;;;;;;;;;;;;;;7.26;100.00;99686.81;5061637;28;20011;-56
2023/11/15 05:37:11;;;;;;;;;;;;;;;7.17;100.00;99690.00;5063315;28;20012;-56
2023/11/15 05:39:40;;;;;;;;;;;;;;;7.16;100.00;99707.47;5069578;28;19979;-56
2023/11/15 05:42:09;;;;;;;;;;;;;;;7.07;100.00;99705.41;5065323;28;19924;-58
2023/11/15 05:44:36;;;;;;;;;;;;;;;6.94;100.00;99701.81;5068856;28;20454;-56
2023/11/15 05:47:03;;;;;;;;;;;;;;;6.95;100.00;99727.88;5049861;28;19968;-55
2023/11/15 05:49:30;;;;;;;;;;;;;;;6.90;100.00;99718.63;5070844;28;20083;-55
2023/11/15 05:51:58;;;;;;;;;;;;;;;6.89;100.00;99741.34;5046126;28;20412;-53
2023/11/15 05:54:27;;;;;;;;;;;;;;;6.84;100.00;99732.88;5068098;28;19924;-59
2023/11/15 05:56:56;;;;;;;;;;;;;;;6.83;100.00;99744.28;5070804;28;19928;-51
2023/11/15 05:59:23;;;;;;;;;;;;;;;6.79;100.00;99742.78;5060238;28;19960;-56
2023/11/15 06:01:51;;;;;;;;;;;;;;;6.81;100.00;99741.75;5036266;28;20050;-58
2023/11/15 06:04:18;;;;;;;;;;;;;;;6.78;100.00;99754.16;5056417;28;19952;-60
2023/11/15 06:06:46;;;;;;;;;;;;;;;6.75;100.00;99759.56;5054833;28;19932;-60
2023/11/15 06:09:15;;;;;;;;;;;;;;;6.63;100.00;99755.91;5050979;28;19964;-59
2023/11/15 06:11:42;;;;;;;;;;;;;;;6.69;100.00;99768.63;5060722;28;19979;-57
2023/11/15 06:14:09;;;;;;;;;;;;;;;6.67;100.00;99772.25;5067229;28;19940;-54
2023/11/15 06:16:37;;;;;;;;;;;;;;;6.65;100.00;99774.09;5065291;28;20345;-55
2023/11/15 06:19:07;;;;;;;;;;;;;;;6.68;100.00;99774.78;5063376;28;19925;-55
2023/11/15 06:21:34;;;;;;;;;;;;;;;6.64;100.00;99777.66;5064441;28;19979;-59
2023/11/15 06:24:02;;;;;;;;;;;;;;;6.62;100.00;99788.22;5068015;28;19931;-59
2023/11/15 06:26:34;;;;;;;;;;;;;;;6.56;100.00;99796.38;5075331;28;19924;-59
2023/11/15 06:29:03;;;;;;;;;;;;;;;6.51;100.00;99801.88;5065537;28;19924;-59
2023/11/15 06:31:32;;;;;;;;;;;;;;;6.48;100.00;99820.31;5066658;28;20622;-55
2023/11/15 06:33:59;;;;;;;;;;;;;;;6.46;100.00;99803.88;5067410;28;20015;-57
2023/11/15 06:36:27;;;;;;;;;;;;;;;6.41;100.00;99823.38;5069914;28;20066;-59
2023/11/15 06:38:54;;;;;;;;;;;;;;;6.43;100.00;99829.34;5068216;28;20007;-57
2023/11/15 06:41:21;;;;;;;;;;;;;;;6.52;100.00;99832.31;5053179;28;19959;-56
2023/11/15 06:43:48;;;;;;;;;;;;;;;6.51;100.00;99829.78;5069448;28;20019;-56
2023/11/15 06:46:16;;;;;;;;;;;;;;;6.46;100.00;99831.81;5044485;28;19948;-57
2023/11/15 06:48:43;;;;;;;;;;;;;;;6.43;100.00;99838.03;5070641;28;19972;-55
2023/11/15 06:51:11;;;;;;;;;;;;;;;6.45;100.00;99858.91;5066311;28;20826;-56
2023/11/15 06:53:38;;;;;;;;;;;;;;;6.39;100.00;99857.44;5071395;28;19971;-57
2023/11/15 06:56:07;;;;;;;;;;;;;;;6.32;100.00;99863.94;5064927;28;19985;-54
2023/11/15 06:58:34;;;;;;;;;;;;;;;6.33;100.00;99863.84;5062374;28;20047;-57
2023/11/15 07:01:01;;;;;;;;;;;;;;;6.39;100.00;99860.03;5067185;28;19931;-50
2023/11/15 07:03:28;;;;;;;;;;;;;;;6.37;100.00;99872.38;5065179;28;19959;-56
2023/11/15 07:05:56;;;;;;;;;;;;;;;6.45;100.00;99872.81;5062887;28;20280;-56
2023/11/15 07:08:23;;;;;;;;;;;;;;;6.45;100.00;99885.88;5069069;28;19951;-52
2023/11/15 07:10:52;;;;;;;;;;;;;;;6.50;100.00;99878.63;5069064;28;20003;-54
2023/11/15 07:13:20;;;;;;;;;;;;;;;6.39;100.00;99880.97;5060812;28;20027;-54
2023/11/15 07:15:49;;;;;;;;;;;;;;;6.41;100.00;99894.81;5063314;28;19967;-52
2023/11/15 07:18:17;;;;;;;;;;;;;;;6.48;100.00;99898.75;5067582;28;19932;-54
2023/11/15 07:20:44;;;;;;;;;;;;;;;6.48;100.00;99909.22;5069705;28;20035;-52
2023/11/15 07:23:11;;;;;;;;;;;;;;;6.54;100.00;99903.69;5069781;28;20337;-55
2023/11/15 07:25:39;;;;;;;;;;;;;;;6.46;100.00;99916.31;5062768;28;20491;-51
2023/11/15 07:28:07;;;;;;;;;;;;;;;6.46;100.00;99926.78;5070596;28;20016;-54
2023/11/15 07:30:35;;;;;;;;;;;;;;;6.47;100.00;99923.22;5069904;28;19932;-57
2023/11/15 07:33:03;;;;;;;;;;;;;;;6.48;100.00;99930.16;5072533;28;19950;-53
2023/11/15 07:35:30;;;;;;;;;;;;;;;6.52;100.00;99936.91;5075470;28;19955;-52
2023/11/15 07:37:57;;;;;;;;;;;;;;;6.53;100.00;99946.47;5070561;28;20007;-57
2023/11/15 07:40:24;;;;;;;;;;;;;;;6.56;100.00;99948.88;5069111;28;20465;-57
2023/11/15 07:42:51;;;;;;;;;;;;;;;6.58;100.00;99952.28;5079030;28;19935;-54
2023/11/15 07:45:18;;;;;;;;;;;;;;;6.57;100.00;99952.34;5072416;28;20016;-54
2023/11/15 07:47:45;;;;;;;;;;;;;;;6.59;100.00;99968.81;5064025;28;20239;-53
2023/11/15 07:50:15;;;;;;;;;;;;;;;6.67;100.00;99961.41;5073284;28;20112;-51
2023/11/15 07:52:45;;;;;;;;;;;;;;;6.69;100.00;99967.41;5068772;28;19990;-50
2023/11/15 07:55:12;;;;;;;;;;;;;;;6.77;100.00;99969.63;5062637;28;20012;-53
2023/11/15 07:57:39;;;;;;;;;;;;;;;6.76;100.00;99979.22;5069911;28;19925;-56
2023/11/15 08:00:10;;;;;;;;;;;;;;;6.74;100.00;99983.69;5062787;28;19931;-51
2023/11/15 08:02:38;;;;;;;;;;;;;;;6.81;100.00;99990.28;5061005;28;19956;-54
2023/11/15 08:05:08;;;;;;;;;;;;;;;6.86;100.00;99987.44;5053899;28;19925;-54
2023/11/15 08:07:38;;;;;;;;;;;;;;;6.79;100.00;100004.38;5067815;28;20294;-53
2023/11/15 08:10:06;;;;;;;;;;;;;;;6.82;100.00;100002.44;5072657;28;20294;-52
2023/11/15 08:12:35;;;;;;;;;;;;;;;6.83;100.00;100004.13;5065803;28;20003;-52
2023/11/15 08:15:03;;;;;;;;;;;;;;;6.85;100.00;100011.91;5066192;28;20015;-59
2023/11/15 08:17:30;;;;;;;;;;;;;;;6.85;100.00;100019.75;5065807;28;19924;-51
2023/11/15 08:19:57;;;;;;;;;;;;;;;6.92;100.00;100026.34;5075607;28;19950;-54
2023/11/15 08:22:24;;;;;;;;;;;;;;;6.97;100.00;100013.00;5065376;28;19983;-53
2023/11/15 08:24:51;;;;;;;;;;;;;;;7.02;100.00;100021.44;5062835;28;20049;-52
2023/11/15 08:27:18;;;;;;;;;;;;;;;6.96;100.00;100021.78;5061320;28;20275;-51
2023/11/15 08:29:45;;;;;;;;;;;;;;;6.97;100.00;100033.94;5063816;28;19924;-53
2023/11/15 08:32:12;;;;;;;;;;;;;;;7.03;100.00;100044.94;5064910;28;19932;-55
2023/11/15 08:34:41;;;;;;;;;;;;;;;7.08;100.00;100049.94;5058391;28;20008;-55
2023/11/15 08:37:08;;;;;;;;;;;;;;;7.10;100.00;100048.06;5071415;28;19967;-49
2023/11/15 08:39:35;;;;;;;;;;;;;;;7.08;100.00;100056.00;5063499;28;20019;-53
2023/11/15 08:42:02;;;;;;;;;;;;;;;6.98;100.00;100065.28;5061600;28;20012;-56
2023/11/15 08:44:29;;;;;;;;;;;;;;;7.04;100.00;100070.19;5068368;28;20019;-56
2023/11/15 08:46:58;;;;;;;;;;;;;;;7.00;100.00;100075.66;5073639;28;20543;-57
2023/11/15 08:49:26;;;;;;;;;;;;;;;7.02;100.00;100079.88;5076197;28;19932;-58
2023/11/15 08:51:55;;;;;;;;;;;;;;;7.10;100.00;100082.94;5068682;28;21365;-58
2023/11/15 08:54:21;;;;;;;;;;;;;;;7.10;100.00;100087.31;5120166;22;19953;-64
2023/11/15 08:56:50;;;;;;;;;;;;;;;7.07;100.00;100088.34;5109642;28;19963;-66
2023/11/15 08:59:19;;;;;;;;;;;;;;;7.12;100.00;100095.13;5102027;28;19931;-65
2023/11/15 09:01:47;;;;;;;;;;;;;;;7.03;100.00;100096.44;5104017;28;20029;-64
2023/11/15 09:04:15;;;;;;;;;;;;;;;7.02;100.00;100107.81;5097778;28;19924;-65
2023/11/15 09:06:46;;;;;;;;;;;;;;;7.08;100.00;100113.59;5088781;28;19951;-64
2023/11/15 09:09:14;;;;;;;;;;;;;;;7.09;100.00;100117.03;5095441;28;19982;-62
2023/11/15 09:11:44;;;;;;;;;;;;;;;7.15;100.00;100116.72;5091508;28;19924;-66
2023/11/15 09:14:11;;;;;;;;;;;;;;;7.22;100.00;100114.63;5081633;28;19986;-63
2023/11/15 09:16:38;;;;;;;;;;;;;;;7.09;100.00;100124.91;5088734;28;19975;-64
2023/11/15 09:19:06;;;;;;;;;;;;;;;7.17;100.00;100127.13;5098891;28;20525;-64
2023/11/15 09:21:33;;;;;;;;;;;;;;;7.13;100.00;100128.22;5089955;28;20030;-64
2023/11/15 09:24:01;;;;;;;;;;;;;;;7.22;100.00;100138.19;5086106;28;19981;-65
2023/11/15 09:26:28;;;;;;;;;;;;;;;7.29;100.00;100137.75;5092425;28;20010;-64
2023/11/15 09:28:55;;;;;;;;;;;;;;;7.29;100.00;100137.75;5101549;27;20377;-64
2023/11/15 09:31:22;;;;;;;;;;;;;;;7.40;100.00;100141.63;5089068;28;19967;-64
2023/11/15 09:33:51;;;;;;;;;;;;;;;7.35;100.00;100144.47;5089677;28;20015;-64
2023/11/15 09:36:19;;;;;;;;;;;;;;;7.38;100.00;100149.53;5086836;28;19932;-64
2023/11/15 09:38:46;;;;;;;;;;;;;;;7.48;100.00;100163.84;5084061;28;20350;-64
2023/11/15 09:41:13;;;;;;;;;;;;;;;7.45;100.00;100158.75;5094583;28;20038;-64
2023/11/15 09:43:42;;;;;;;;;;;;;;;7.45;100.00;100165.78;5088412;28;19975;-64
2023/11/15 09:46:09;;;;;;;;;;;;;;;7.51;100.00;100163.66;5085548;28;19974;-64
2023/11/15 09:48:38;;;;;;;;;;;;;;;7.32;100.00;100169.03;5091201;28;19974;-64
2023/11/15 09:51:05;;;;;;;;;;;;;;;7.29;100.00;100171.81;5094259;28;20296;-63
2023/11/15 09:53:34;;;;;;;;;;;;;;;7.15;100.00;100182.16;5086828;28;20363;-64
2023/11/15 09:56:04;;;;;;;;;;;;;;;7.15;100.00;100195.25;5090685;28;19967;-64
2023/11/15 09:58:31;;;;;;;;;;;;;;;7.22;100.00;100183.53;5082828;28;19952;-64
2023/11/15 10:01:00;;;;;;;;;;;;;;;7.27;100.00;100184.16;5083855;28;20456;-64
2023/11/15 10:03:28;;;;;;;;;;;;;;;7.29;100.00;100184.91;5063786;28;19960;-64
2023/11/15 10:06:03;;;;;;;;;;;;;;;7.51;100.00;100189.84;5084636;28;20015;-64
2023/11/15 10:08:31;;;;;;;;;;;;;;;7.49;100.00;100196.97;5081197;28;20227;-63
2023/11/15 10:11:04;;;;;;;;;;;;;;;7.69;100.00;100197.66;5086100;28;20056;-63
2023/11/15 10:13:31;;;;;;;;;;;;;;;7.79;100.00;100193.59;5086753;28;19987;-62
2023/11/15 10:16:01;;;;;;;;;;;;;;;7.83;100.00;100197.75;5085363;28;19924;-63
2023/11/15 10:18:29;;;;;;;;;;;;;;;7.81;100.00;100197.84;5090125;28;19963;-64
2023/11/15 10:21:08;;;;;;;;;;;;;;;7.76;100.00;100204.28;5082873;28;20042;-64
2023/11/15 10:23:36;;;;;;;;;;;;;;;7.81;100.00;100213.56;5090148;28;20297;-64
2023/11/15 10:26:05;;;;;;;;;;;;;;;7.76;100.00;100212.97;5093299;28;20391;-64
2023/11/15 10:28:33;;;;;;;;;;;;;;;7.73;100.00;100213.13;5074793;28;19970;-63
2023/11/15 10:31:04;;;;;;;;;;;;;;;7.79;100.00;100220.69;5104313;27;19924;-63
2023/11/15 10:33:32;;;;;;;;;;;;;;;7.51;100.00;100208.19;5089537;28;19992;-63
2023/11/15 10:36:15;;;;;;;;;;;;;;;7.66;100.00;100221.44;5082452;28;20331;-63
2023/11/15 10:38:46;;;;;;;;;;;;;;;7.83;100.00;100224.84;5088063;28;19974;-63
2023/11/15 10:41:17;;;;;;;;;;;;;;;7.72;100.00;100218.47;5089289;28;19971;-64
2023/11/15 10:43:51;;;;;;;;;;;;;;;7.75;100.00;100228.78;5093645;28;19951;-63
2023/11/15 10:46:22;;;;;;;;;;;;;;;7.87;100.00;100228.94;5088253;28;19967;-62
2023/11/15 10:48:49;;;;;;;;;;;;;;;7.95;100.00;100233.78;5072981;28;19962;-63
2023/11/15 10:51:19;;;;;;;;;;;;;;;7.85;100.00;100237.84;5088860;28;19924;-63
2023/11/15 10:53:46;;;;;;;;;;;;;;;7.89;100.00;100241.16;5089189;28;20023;-64
2023/11/15 10:56:15;;;;;;;;;;;;;;;7.97;100.00;100246.81;5088458;28;19951;-63
2023/11/15 10:58:52;;;;;;;;;;;;;;;7.90;100.00;100251.53;5073777;28;20011;-63
2023/11/15 11:01:22;;;;;;;;;;;;;;;7.84;100.00;100246.63;5080028;28;19968;-64
2023/11/15 11:03:54;;;;;;;;;;;;;;;7.78;100.00;100262.66;5073649;28;20011;-63
2023/11/15 11:06:25;;;;;;;;;;;;;;;7.70;100.00;100263.09;5064526;28;20022;-63
2023/11/15 11:08:55;;;;;;;;;;;;;;;7.72;100.00;100265.63;5087475;28;20016;-63
2023/11/15 11:11:28;;;;;;;;;;;;;;;7.68;100.00;100264.94;5088452;28;19974;-63
2023/11/15 11:14:15;;;;;;;;;;;;;;;7.69;100.00;100274.47;5090451;28;19959;-63
2023/11/15 11:16:44;;;;;;;;;;;;;;;7.64;100.00;100281.75;5088464;28;19959;-63
2023/11/15 11:19:12;;;;;;;;;;;;;;;7.65;100.00;100274.72;5081363;28;20357;-63
2023/11/15 11:24:34;;;;;;;;;;;;;;;7.51;100.00;100291.16;5083787;28;20011;-64
2023/11/15 11:27:14;;;;;;;;;;;;;;;7.47;100.00;100289.63;5084690;28;20413;-63
2023/11/15 11:30:00;;;;;;;;;;;;;;;7.48;100.00;100286.94;5084557;28;19959;-64
2023/11/15 11:32:28;;;;;;;;;;;;;;;7.40;100.00;100298.75;5088155;28;20675;-64
2023/11/15 11:35:05;;;;;;;;;;;;;;;7.50;100.00;100297.34;5085434;28;20439;-63
2023/11/15 11:37:44;;;;;;;;;;;;;;;7.55;100.00;100295.31;5087919;28;20338;-63
2023/11/15 11:40:13;;;;;;;;;;;;;;;7.41;100.00;100301.25;5082634;28;19971;-62
2023/11/15 11:42:41;;;;;;;;;;;;;;;7.43;100.00;100304.66;5095677;28;19963;-64
2023/11/15 11:45:08;;;;;;;;;;;;;;;7.47;100.00;100295.69;5092935;28;20010;-64
2023/11/15 11:47:46;;;;;;;;;;;;;;;7.45;100.00;100301.97;5087697;28;19924;-64
2023/11/15 11:50:17;;;;;;;;;;;;;;;7.42;100.00;100309.97;5080590;28;19970;-64
2023/11/15 11:52:44;;;;;;;;;;;;;;;7.53;100.00;100318.97;5085696;28;20015;-64
2023/11/15 11:55:11;;;;;;;;;;;;;;;7.48;100.00;100309.69;5086455;28;19940;-62
2023/11/15 11:57:41;;;;;;;;;;;;;;;7.48;100.00;100312.28;5065001;28;20081;-64
2023/11/15 12:00:11;;;;;;;;;;;;;;;7.39;100.00;100305.75;5084762;28;20002;-64
2023/11/15 12:02:53;;;;;;;;;;;;;;;7.56;100.00;100316.19;5086000;28;19979;-64
2023/11/15 12:05:30;;;;;;;;;;;;;;;7.58;100.00;100316.13;5084626;28;19924;-63
2023/11/15 12:07:57;;;;;;;;;;;;;;;7.63;100.00;100323.75;5088485;28;20412;-64
2023/11/15 12:10:24;;;;;;;;;;;;;;;7.46;100.00;100314.97;5086412;28;19972;-63
2023/11/15 12:12:56;;;;;;;;;;;;;;;7.41;100.00;100313.50;5076239;28;20010;-63
2023/11/15 12:15:24;;;;;;;;;;;;;;;7.50;100.00;100337.47;5081640;28;20567;-63
2023/11/15 12:17:55;;;;;;;;;;;;;;;7.53;100.00;100326.00;5083545;28;20019;-63
2023/11/15 12:20:25;;;;;;;;;;;;;;;7.57;100.00;100335.41;5075982;28;19989;-63
2023/11/15 12:23:03;;;;;;;;;;;;;;;7.53;100.00;100328.63;5086279;28;20015;-63
2023/11/15 12:25:31;;;;;;;;;;;;;;;7.56;100.00;100325.81;5081291;28;20354;-62
2023/11/15 12:28:01;;;;;;;;;;;;;;;7.75;100.00;100333.59;5087627;28;19974;-63
2023/11/15 12:30:34;;;;;;;;;;;;;;;7.69;100.00;100336.53;5084116;28;20023;-63
2023/11/15 12:33:02;;;;;;;;;;;;;;;7.74;100.00;100334.50;5056003;28;20030;-62
2023/11/15 12:35:30;;;;;;;;;;;;;;;7.59;100.00;100342.22;5088271;28;19967;-63
2023/11/15 12:38:09;;;;;;;;;;;;;;;7.73;100.00;100345.91;5082675;28;20012;-63
2023/11/15 12:40:39;;;;;;;;;;;;;;;7.62;100.00;100354.34;5066765;28;19943;-63
2023/11/15 12:43:21;;;;;;;;;;;;;;;7.63;100.00;100356.03;5079699;28;20022;-63
2023/11/15 12:45:50;;;;;;;;;;;;;;;7.64;100.00;100356.88;5080802;28;20043;-64
2023/11/15 12:48:17;;;;;;;;;;;;;;;7.65;100.00;100353.31;5070722;28;20006;-63
2023/11/15 12:50:45;;;;;;;;;;;;;;;7.73;100.00;100352.00;5071821;28;20297;-63